sensor_id;sensor_type;location;lat;lon;timestamp;P1;durP1;ratioP1;P2;durP2;ratioP2
55220;SDS011;41089;51.448;6.604;2023-07-02T00:01:40;6.57;;;3.78;;
55220;SDS011;41089;51.448;6.604;2023-07-02T00:07:41;6.60;;;3.75;;
55220;SDS011;41089;51.448;6.604;2023-07-02T00:13:43;6.43;;;3.93;;
55220;SDS011;41089;51.448;6.604;2023-07-02T00:19:45;6.47;;;3.80;;
55220;SDS011;41089;51.448;6.604;2023-07-02T00:25:46;6.78;;;4.22;;
55220;SDS011;41089;51.448;6.604;2023-07-02T00:31:46;7.13;;;3.80;;
55220;SDS011;41089;51.448;6.604;2023-07-02T00:43:50;6.70;;;4.25;;
55220;SDS011;41089;51.448;6.604;2023-07-02T00:49:54;8.02;;;4.55;;
55220;SDS011;41089;51.448;6.604;2023-07-02T00:55:56;9.85;;;5.35;;
55220;SDS011;41089;51.448;6.604;2023-07-02T01:01:57;9.88;;;4.30;;
55220;SDS011;41089;51.448;6.604;2023-07-02T01:08:04;9.05;;;4.90;;
55220;SDS011;41089;51.448;6.604;2023-07-02T01:14:11;9.87;;;5.00;;
55220;SDS011;41089;51.448;6.604;2023-07-02T01:20:14;8.82;;;5.95;;
55220;SDS011;41089;51.448;6.604;2023-07-02T01:26:14;10.00;;;6.20;;
55220;SDS011;41089;51.448;6.604;2023-07-02T01:32:15;11.38;;;7.18;;
55220;SDS011;41089;51.448;6.604;2023-07-02T01:38:15;10.37;;;6.10;;
55220;SDS011;41089;51.448;6.604;2023-07-02T01:44:16;9.98;;;6.30;;
55220;SDS011;41089;51.448;6.604;2023-07-02T01:50:16;18.50;;;7.68;;
55220;SDS011;41089;51.448;6.604;2023-07-02T01:56:18;13.45;;;7.68;;
55220;SDS011;41089;51.448;6.604;2023-07-02T02:02:20;16.23;;;8.38;;
55220;SDS011;41089;51.448;6.604;2023-07-02T02:08:21;12.60;;;8.75;;
55220;SDS011;41089;51.448;6.604;2023-07-02T02:14:21;15.43;;;8.33;;
55220;SDS011;41089;51.448;6.604;2023-07-02T02:20:22;19.93;;;10.03;;
55220;SDS011;41089;51.448;6.604;2023-07-02T02:26:22;14.00;;;8.90;;
55220;SDS011;41089;51.448;6.604;2023-07-02T02:32:23;17.02;;;10.20;;
55220;SDS011;41089;51.448;6.604;2023-07-02T02:38:24;17.20;;;10.13;;
55220;SDS011;41089;51.448;6.604;2023-07-02T02:44:24;21.93;;;11.03;;
55220;SDS011;41089;51.448;6.604;2023-07-02T02:50:25;17.27;;;9.82;;
55220;SDS011;41089;51.448;6.604;2023-07-02T02:56:25;19.20;;;10.37;;
55220;SDS011;41089;51.448;6.604;2023-07-02T03:02:25;16.40;;;10.23;;
55220;SDS011;41089;51.448;6.604;2023-07-02T03:08:26;21.90;;;11.32;;
55220;SDS011;41089;51.448;6.604;2023-07-02T03:14:28;18.40;;;11.15;;
55220;SDS011;41089;51.448;6.604;2023-07-02T03:20:28;19.45;;;11.20;;
55220;SDS011;41089;51.448;6.604;2023-07-02T03:26:29;23.50;;;11.67;;
55220;SDS011;41089;51.448;6.604;2023-07-02T03:32:30;20.67;;;12.05;;
55220;SDS011;41089;51.448;6.604;2023-07-02T03:38:30;27.52;;;13.02;;
55220;SDS011;41089;51.448;6.604;2023-07-02T03:44:31;25.37;;;13.17;;
55220;SDS011;41089;51.448;6.604;2023-07-02T03:50:31;19.05;;;12.02;;
55220;SDS011;41089;51.448;6.604;2023-07-02T03:56:32;30.33;;;13.97;;
55220;SDS011;41089;51.448;6.604;2023-07-02T04:02:33;23.87;;;12.53;;
55220;SDS011;41089;51.448;6.604;2023-07-02T04:08:33;22.90;;;12.65;;
55220;SDS011;41089;51.448;6.604;2023-07-02T04:14:34;24.60;;;13.73;;
55220;SDS011;41089;51.448;6.604;2023-07-02T04:20:34;23.77;;;13.82;;
55220;SDS011;41089;51.448;6.604;2023-07-02T04:26:37;20.65;;;12.57;;
55220;SDS011;41089;51.448;6.604;2023-07-02T04:32:37;25.80;;;14.90;;
55220;SDS011;41089;51.448;6.604;2023-07-02T04:38:41;25.17;;;14.98;;
55220;SDS011;41089;51.448;6.604;2023-07-02T04:44:41;26.05;;;15.13;;
55220;SDS011;41089;51.448;6.604;2023-07-02T04:50:43;25.90;;;16.02;;
55220;SDS011;41089;51.448;6.604;2023-07-02T04:56:43;26.83;;;16.57;;
55220;SDS011;41089;51.448;6.604;2023-07-02T05:02:44;23.90;;;14.97;;
55220;SDS011;41089;51.448;6.604;2023-07-02T05:08:44;27.67;;;15.37;;
55220;SDS011;41089;51.448;6.604;2023-07-02T05:14:45;32.13;;;16.00;;
55220;SDS011;41089;51.448;6.604;2023-07-02T05:20:45;25.77;;;16.58;;
55220;SDS011;41089;51.448;6.604;2023-07-02T05:26:46;27.03;;;16.03;;
55220;SDS011;41089;51.448;6.604;2023-07-02T05:32:46;29.23;;;16.05;;
55220;SDS011;41089;51.448;6.604;2023-07-02T05:38:46;28.87;;;16.27;;
55220;SDS011;41089;51.448;6.604;2023-07-02T05:44:47;23.80;;;15.93;;
55220;SDS011;41089;51.448;6.604;2023-07-02T05:50:47;27.15;;;16.52;;
55220;SDS011;41089;51.448;6.604;2023-07-02T05:56:47;26.15;;;15.77;;
55220;SDS011;41089;51.448;6.604;2023-07-02T06:02:48;25.60;;;15.15;;
55220;SDS011;41089;51.448;6.604;2023-07-02T06:08:48;26.15;;;15.90;;
55220;SDS011;41089;51.448;6.604;2023-07-02T06:14:49;27.85;;;14.80;;
55220;SDS011;41089;51.448;6.604;2023-07-02T06:20:50;28.00;;;14.60;;
55220;SDS011;41089;51.448;6.604;2023-07-02T06:26:50;26.85;;;14.90;;
55220;SDS011;41089;51.448;6.604;2023-07-02T06:32:51;22.38;;;13.45;;
55220;SDS011;41089;51.448;6.604;2023-07-02T06:38:51;28.17;;;14.82;;
55220;SDS011;41089;51.448;6.604;2023-07-02T06:44:52;29.73;;;15.45;;
55220;SDS011;41089;51.448;6.604;2023-07-02T06:50:52;25.23;;;13.83;;
55220;SDS011;41089;51.448;6.604;2023-07-02T06:57:00;34.75;;;15.13;;
55220;SDS011;41089;51.448;6.604;2023-07-02T07:03:02;26.23;;;13.10;;
55220;SDS011;41089;51.448;6.604;2023-07-02T07:09:03;21.00;;;11.43;;
55220;SDS011;41089;51.448;6.604;2023-07-02T07:15:04;19.40;;;10.20;;
55220;SDS011;41089;51.448;6.604;2023-07-02T07:21:04;23.50;;;10.68;;
55220;SDS011;41089;51.448;6.604;2023-07-02T07:27:05;22.38;;;10.32;;
55220;SDS011;41089;51.448;6.604;2023-07-02T07:33:05;23.43;;;11.10;;
55220;SDS011;41089;51.448;6.604;2023-07-02T07:39:05;21.88;;;10.88;;
55220;SDS011;41089;51.448;6.604;2023-07-02T07:45:06;18.83;;;9.20;;
55220;SDS011;41089;51.448;6.604;2023-07-02T07:51:07;18.40;;;9.45;;
55220;SDS011;41089;51.448;6.604;2023-07-02T07:57:08;16.63;;;8.88;;
55220;SDS011;41089;51.448;6.604;2023-07-02T08:03:09;21.63;;;9.65;;
55220;SDS011;41089;51.448;6.604;2023-07-02T08:09:10;16.58;;;8.48;;
55220;SDS011;41089;51.448;6.604;2023-07-02T08:15:11;11.38;;;7.50;;
55220;SDS011;41089;51.448;6.604;2023-07-02T08:21:11;13.13;;;6.50;;
55220;SDS011;41089;51.448;6.604;2023-07-02T08:27:12;12.38;;;7.30;;
55220;SDS011;41089;51.448;6.604;2023-07-02T08:33:18;14.32;;;7.53;;
55220;SDS011;41089;51.448;6.604;2023-07-02T08:39:18;17.70;;;8.15;;
55220;SDS011;41089;51.448;6.604;2023-07-02T08:45:18;14.23;;;7.20;;
55220;SDS011;41089;51.448;6.604;2023-07-02T08:51:20;18.15;;;7.43;;
55220;SDS011;41089;51.448;6.604;2023-07-02T08:57:21;17.17;;;8.90;;
55220;SDS011;41089;51.448;6.604;2023-07-02T09:03:22;14.52;;;7.63;;
55220;SDS011;41089;51.448;6.604;2023-07-02T09:09:25;16.25;;;8.10;;
55220;SDS011;41089;51.448;6.604;2023-07-02T09:15:27;15.83;;;8.30;;
55220;SDS011;41089;51.448;6.604;2023-07-02T09:27:45;13.30;;;7.88;;
55220;SDS011;41089;51.448;6.604;2023-07-02T09:33:45;16.90;;;7.60;;
55220;SDS011;41089;51.448;6.604;2023-07-02T09:39:48;13.18;;;7.25;;
55220;SDS011;41089;51.448;6.604;2023-07-02T09:45:50;11.40;;;6.80;;
55220;SDS011;41089;51.448;6.604;2023-07-02T09:51:52;13.82;;;6.97;;
55220;SDS011;41089;51.448;6.604;2023-07-02T09:57:53;13.80;;;6.63;;
55220;SDS011;41089;51.448;6.604;2023-07-02T10:03:56;15.65;;;7.40;;
55220;SDS011;41089;51.448;6.604;2023-07-02T10:09:56;11.35;;;6.50;;
55220;SDS011;41089;51.448;6.604;2023-07-02T10:16:04;13.13;;;6.55;;
55220;SDS011;41089;51.448;6.604;2023-07-02T10:22:05;10.85;;;6.43;;
55220;SDS011;41089;51.448;6.604;2023-07-02T10:28:14;12.07;;;7.20;;
55220;SDS011;41089;51.448;6.604;2023-07-02T10:34:40;11.48;;;6.30;;
55220;SDS011;41089;51.448;6.604;2023-07-02T10:40:40;13.10;;;6.95;;
55220;SDS011;41089;51.448;6.604;2023-07-02T10:46:46;13.30;;;6.85;;
55220;SDS011;41089;51.448;6.604;2023-07-02T10:52:47;13.93;;;8.18;;
55220;SDS011;41089;51.448;6.604;2023-07-02T10:58:50;13.30;;;7.07;;
55220;SDS011;41089;51.448;6.604;2023-07-02T11:04:53;12.65;;;6.97;;
55220;SDS011;41089;51.448;6.604;2023-07-02T11:11:04;11.30;;;6.82;;
55220;SDS011;41089;51.448;6.604;2023-07-02T11:17:08;11.57;;;6.35;;
55220;SDS011;41089;51.448;6.604;2023-07-02T11:29:22;11.38;;;5.97;;
55220;SDS011;41089;51.448;6.604;2023-07-02T11:35:27;11.33;;;6.07;;
55220;SDS011;41089;51.448;6.604;2023-07-02T11:41:41;11.57;;;6.32;;
55220;SDS011;41089;51.448;6.604;2023-07-02T11:47:43;11.13;;;6.63;;
55220;SDS011;41089;51.448;6.604;2023-07-02T11:53:43;11.35;;;7.32;;
55220;SDS011;41089;51.448;6.604;2023-07-02T11:59:44;14.73;;;7.47;;
55220;SDS011;41089;51.448;6.604;2023-07-02T12:05:44;14.77;;;7.07;;
55220;SDS011;41089;51.448;6.604;2023-07-02T12:11:44;11.20;;;6.68;;
55220;SDS011;41089;51.448;6.604;2023-07-02T12:17:46;14.60;;;6.88;;
55220;SDS011;41089;51.448;6.604;2023-07-02T12:23:46;9.87;;;6.10;;
55220;SDS011;41089;51.448;6.604;2023-07-02T12:29:46;12.60;;;6.57;;
55220;SDS011;41089;51.448;6.604;2023-07-02T12:35:48;13.93;;;7.30;;
55220;SDS011;41089;51.448;6.604;2023-07-02T12:41:48;13.83;;;8.00;;
55220;SDS011;41089;51.448;6.604;2023-07-02T12:47:49;11.77;;;7.18;;
55220;SDS011;41089;51.448;6.604;2023-07-02T12:53:49;14.73;;;8.02;;
55220;SDS011;41089;51.448;6.604;2023-07-02T12:59:49;13.27;;;8.30;;
55220;SDS011;41089;51.448;6.604;2023-07-02T13:05:51;14.88;;;8.13;;
55220;SDS011;41089;51.448;6.604;2023-07-02T13:11:51;13.93;;;7.45;;
55220;SDS011;41089;51.448;6.604;2023-07-02T13:17:58;14.57;;;7.80;;
55220;SDS011;41089;51.448;6.604;2023-07-02T13:23:58;14.35;;;8.23;;
55220;SDS011;41089;51.448;6.604;2023-07-02T13:29:59;22.45;;;9.52;;
55220;SDS011;41089;51.448;6.604;2023-07-02T13:35:59;14.77;;;9.00;;
55220;SDS011;41089;51.448;6.604;2023-07-02T13:42:01;14.40;;;8.10;;
55220;SDS011;41089;51.448;6.604;2023-07-02T13:48:01;16.30;;;8.90;;
55220;SDS011;41089;51.448;6.604;2023-07-02T13:54:01;19.63;;;9.07;;
55220;SDS011;41089;51.448;6.604;2023-07-02T14:00:04;16.50;;;9.23;;
55220;SDS011;41089;51.448;6.604;2023-07-02T14:06:05;17.58;;;8.80;;
55220;SDS011;41089;51.448;6.604;2023-07-02T14:12:05;19.40;;;9.73;;
55220;SDS011;41089;51.448;6.604;2023-07-02T14:18:06;18.40;;;8.70;;
55220;SDS011;41089;51.448;6.604;2023-07-02T14:24:07;18.40;;;9.60;;
55220;SDS011;41089;51.448;6.604;2023-07-02T14:30:08;17.00;;;9.00;;
55220;SDS011;41089;51.448;6.604;2023-07-02T14:36:09;24.40;;;12.20;;
55220;SDS011;41089;51.448;6.604;2023-07-02T14:42:10;15.20;;;9.48;;
55220;SDS011;41089;51.448;6.604;2023-07-02T14:48:11;16.52;;;8.80;;
55220;SDS011;41089;51.448;6.604;2023-07-02T14:54:12;15.60;;;7.53;;
55220;SDS011;41089;51.448;6.604;2023-07-02T15:00:12;12.38;;;6.72;;
55220;SDS011;41089;51.448;6.604;2023-07-02T15:06:16;14.88;;;7.68;;
55220;SDS011;41089;51.448;6.604;2023-07-02T15:12:17;13.90;;;7.57;;
55220;SDS011;41089;51.448;6.604;2023-07-02T15:18:18;15.02;;;7.43;;
55220;SDS011;41089;51.448;6.604;2023-07-02T15:24:20;16.77;;;8.27;;
55220;SDS011;41089;51.448;6.604;2023-07-02T15:30:24;13.85;;;7.07;;
55220;SDS011;41089;51.448;6.604;2023-07-02T15:36:24;11.80;;;6.40;;
55220;SDS011;41089;51.448;6.604;2023-07-02T15:42:25;12.43;;;6.93;;
55220;SDS011;41089;51.448;6.604;2023-07-02T15:48:32;12.10;;;6.50;;
55220;SDS011;41089;51.448;6.604;2023-07-02T15:54:32;14.48;;;8.57;;
55220;SDS011;41089;51.448;6.604;2023-07-02T16:00:33;14.67;;;6.93;;
55220;SDS011;41089;51.448;6.604;2023-07-02T16:06:34;13.63;;;7.40;;
55220;SDS011;41089;51.448;6.604;2023-07-02T16:12:35;17.00;;;7.70;;
55220;SDS011;41089;51.448;6.604;2023-07-02T16:18:36;13.48;;;7.13;;
55220;SDS011;41089;51.448;6.604;2023-07-02T16:24:37;12.07;;;7.10;;
55220;SDS011;41089;51.448;6.604;2023-07-02T16:30:37;9.70;;;5.87;;
55220;SDS011;41089;51.448;6.604;2023-07-02T16:36:37;11.70;;;5.93;;
55220;SDS011;41089;51.448;6.604;2023-07-02T16:42:38;14.47;;;6.60;;
55220;SDS011;41089;51.448;6.604;2023-07-02T16:48:38;12.10;;;7.03;;
55220;SDS011;41089;51.448;6.604;2023-07-02T16:54:38;12.47;;;6.90;;
55220;SDS011;41089;51.448;6.604;2023-07-02T17:00:39;12.43;;;6.20;;
55220;SDS011;41089;51.448;6.604;2023-07-02T17:06:40;9.77;;;6.57;;
55220;SDS011;41089;51.448;6.604;2023-07-02T17:18:49;14.18;;;7.05;;
55220;SDS011;41089;51.448;6.604;2023-07-02T17:24:50;11.55;;;6.80;;
55220;SDS011;41089;51.448;6.604;2023-07-02T17:30:53;12.48;;;7.03;;
55220;SDS011;41089;51.448;6.604;2023-07-02T17:36:57;13.63;;;7.43;;
55220;SDS011;41089;51.448;6.604;2023-07-02T17:42:59;14.50;;;6.95;;
55220;SDS011;41089;51.448;6.604;2023-07-02T17:48:59;12.77;;;6.70;;
55220;SDS011;41089;51.448;6.604;2023-07-02T17:55:00;14.40;;;6.10;;
55220;SDS011;41089;51.448;6.604;2023-07-02T18:01:01;16.52;;;6.75;;
55220;SDS011;41089;51.448;6.604;2023-07-02T18:07:19;13.87;;;6.90;;
55220;SDS011;41089;51.448;6.604;2023-07-02T18:13:20;8.55;;;6.50;;
55220;SDS011;41089;51.448;6.604;2023-07-02T18:19:22;12.25;;;6.28;;
55220;SDS011;41089;51.448;6.604;2023-07-02T18:25:26;15.63;;;7.70;;
55220;SDS011;41089;51.448;6.604;2023-07-02T18:31:28;15.82;;;6.70;;
55220;SDS011;41089;51.448;6.604;2023-07-02T18:37:29;14.32;;;6.93;;
55220;SDS011;41089;51.448;6.604;2023-07-02T18:43:31;16.13;;;7.03;;
55220;SDS011;41089;51.448;6.604;2023-07-02T18:49:37;11.65;;;6.50;;
55220;SDS011;41089;51.448;6.604;2023-07-02T18:55:38;14.93;;;7.15;;
55220;SDS011;41089;51.448;6.604;2023-07-02T19:01:38;14.50;;;7.50;;
55220;SDS011;41089;51.448;6.604;2023-07-02T19:07:46;19.08;;;8.20;;
55220;SDS011;41089;51.448;6.604;2023-07-02T19:13:46;15.20;;;7.18;;
55220;SDS011;41089;51.448;6.604;2023-07-02T19:19:47;15.35;;;7.00;;
55220;SDS011;41089;51.448;6.604;2023-07-02T19:25:51;12.23;;;6.78;;
55220;SDS011;41089;51.448;6.604;2023-07-02T19:31:53;12.27;;;6.82;;
55220;SDS011;41089;51.448;6.604;2023-07-02T19:37:54;12.27;;;6.22;;
55220;SDS011;41089;51.448;6.604;2023-07-02T19:43:54;14.70;;;5.85;;
55220;SDS011;41089;51.448;6.604;2023-07-02T19:49:58;13.90;;;6.28;;
55220;SDS011;41089;51.448;6.604;2023-07-02T19:56:02;12.07;;;5.93;;
55220;SDS011;41089;51.448;6.604;2023-07-02T20:02:04;11.70;;;5.68;;
55220;SDS011;41089;51.448;6.604;2023-07-02T20:08:04;13.10;;;6.00;;
55220;SDS011;41089;51.448;6.604;2023-07-02T20:14:04;10.07;;;6.03;;
55220;SDS011;41089;51.448;6.604;2023-07-02T20:20:05;14.32;;;6.65;;
55220;SDS011;41089;51.448;6.604;2023-07-02T20:26:06;11.00;;;5.55;;
55220;SDS011;41089;51.448;6.604;2023-07-02T20:32:06;11.30;;;5.90;;
55220;SDS011;41089;51.448;6.604;2023-07-02T20:38:07;10.15;;;5.30;;
55220;SDS011;41089;51.448;6.604;2023-07-02T20:44:13;19.25;;;6.22;;
55220;SDS011;41089;51.448;6.604;2023-07-02T20:50:15;11.07;;;5.70;;
55220;SDS011;41089;51.448;6.604;2023-07-02T20:56:16;10.50;;;5.78;;
55220;SDS011;41089;51.448;6.604;2023-07-02T21:02:16;12.47;;;6.37;;
55220;SDS011;41089;51.448;6.604;2023-07-02T21:08:19;14.73;;;6.00;;
